Main page
METAR-TAF:

METAR-TAF

Airports :

Jinnah International Airport

Karachi, Pakistan

latitude: 24-54N, longitude: 067-08E, elevation: 21 m

Current weather observation

The report was made 35 minutes ago, at 04:30 UTC
Wind 4 kt from the North/Northeast
Temperature 22°C
Humidity 29%
Pressure 1019 hPa
Visibility: 3000 m
haze

METAR: OPKC 030430Z 03004KT 3000 HZ NSC 22/03 Q1019 NOSIG

Time: 10:05 (05:05 UTC)

Forecast

The report was made 4 hours and 35 minutes ago, at 00:30 UTC
Forecast valid from 03 at 03 UTC to 03 at 12 UTC
Wind 10 kt from the Northeast
Visibility: 5000 m
haze

TAF: OPKC 030030Z 0303/0312 05010KT 5000 HZ NSC

Weather observations and forecasts of more than 4000 airports (METAR and TAF reports).

The available stations are represented by yellow and red dots on the map.

Hover mouse over dot to see the name of the station.

Then click to see weather observations and forecasts.

To change the map : click on the green buttons with a black cross to zoom in, on the green button with a dash to zoom out, or on the green arrows for adjacent maps.


METAR-TAF: